createdAt,value
2023-04-08T00:01:33.731Z,102470.28
2023-04-08T00:06:35.724Z,102472.94
2023-04-08T00:11:38.045Z,102473.66
2023-04-08T00:16:44.830Z,102487.72
2023-04-08T00:21:51.281Z,102488.66
2023-04-08T00:26:56.526Z,102482.13
2023-04-08T00:32:04.058Z,102487.81
2023-04-08T00:37:05.727Z,102484.41
2023-04-08T00:42:07.512Z,102487.91
2023-04-08T00:47:16.207Z,102486.25
2023-04-08T00:52:18.001Z,102487.78
2023-04-08T00:57:21.932Z,102487.66
2023-04-08T01:02:35.320Z,102488.50
2023-04-08T01:07:38.644Z,102493.22
2023-04-08T01:12:49.654Z,102495.78
2023-04-08T01:17:56.342Z,102491.16
2023-04-08T01:23:00.857Z,102490.66
2023-04-08T01:28:13.746Z,102487.53
2023-04-08T01:33:18.850Z,102491.38
2023-04-08T01:38:21.653Z,102491.28
2023-04-08T01:43:24.582Z,102496.81
2023-04-08T01:48:27.340Z,102487.72
2023-04-08T01:53:29.013Z,102501.47
2023-04-08T01:58:35.269Z,102501.38
2023-04-08T02:03:37.813Z,102507.53
2023-04-08T02:08:39.584Z,102506.06
2023-04-08T02:13:46.615Z,102508.00
2023-04-08T02:18:58.593Z,102513.34
2023-04-08T02:24:04.646Z,102512.34
2023-04-08T02:29:13.677Z,102516.69
2023-04-08T02:34:19.112Z,102520.22
2023-04-08T02:39:21.107Z,102512.97
2023-04-08T02:44:24.874Z,102518.31
2023-04-08T02:49:26.581Z,102523.38
2023-04-08T02:54:30.688Z,102524.22
2023-04-08T02:59:37.715Z,102525.31
2023-04-08T03:04:44.105Z,102523.63
2023-04-08T03:09:46.160Z,102526.28
2023-04-08T03:14:50.346Z,102522.75
2023-04-08T03:19:54.473Z,102528.06
2023-04-08T03:24:56.387Z,102524.47
2023-04-08T03:30:00.312Z,102512.97
2023-04-08T03:35:10.480Z,102520.81
2023-04-08T03:40:12.808Z,102513.56
2023-04-08T03:45:14.474Z,102515.41
2023-04-08T03:50:16.145Z,102515.28
2023-04-08T03:55:18.229Z,102513.56
2023-04-08T04:00:24.542Z,102508.25
2023-04-08T04:05:26.216Z,102515.28
2023-04-08T04:10:27.874Z,102525.78
2023-04-08T04:15:35.098Z,102520.38
2023-04-08T04:20:40.532Z,102523.75
2023-04-08T04:25:42.620Z,102523.75
2023-04-08T04:30:44.356Z,102528.25
2023-04-08T04:35:50.906Z,102525.34
2023-04-08T04:40:52.810Z,102525.13
2023-04-08T04:45:54.826Z,102527.88
2023-04-08T04:50:57.632Z,102541.09
2023-04-08T04:56:02.215Z,102539.25
2023-04-08T05:01:06.280Z,102548.72
2023-04-08T05:06:07.998Z,102558.38
2023-04-08T05:11:12.952Z,102549.44
2023-04-08T05:16:19.370Z,102557.81
2023-04-08T05:21:24.023Z,102565.56
2023-04-08T05:26:26.370Z,102561.28
2023-04-08T05:31:31.123Z,102562.00
2023-04-08T05:36:35.343Z,102572.00
2023-04-08T05:41:37.014Z,102577.47
2023-04-08T05:46:38.873Z,102582.91
2023-04-08T05:51:40.569Z,102588.34
2023-04-08T05:56:42.262Z,102591.13
2023-04-08T06:01:48.558Z,102605.16
2023-04-08T06:06:52.737Z,102607.44
2023-04-08T06:11:54.430Z,102604.75
2023-04-08T06:16:58.591Z,102610.09
2023-04-08T06:22:00.356Z,102618.81
2023-04-08T06:27:04.445Z,102628.47
2023-04-08T06:32:08.632Z,102615.53
2023-04-08T06:37:12.837Z,102621.50
2023-04-08T06:42:14.509Z,102619.19
2023-04-08T06:47:36.659Z,102625.00
2023-04-08T06:52:38.426Z,102624.28
2023-04-08T06:57:42.598Z,102628.41
2023-04-08T07:02:46.613Z,102636.63
2023-04-08T07:07:53.041Z,102637.47
2023-04-08T07:12:54.922Z,102632.66
2023-04-08T07:17:57.178Z,102651.31
2023-04-08T07:23:02.043Z,102651.78
2023-04-08T07:28:06.474Z,102648.16
2023-04-08T07:33:08.247Z,102652.00
2023-04-08T07:38:14.805Z,102660.63
2023-04-08T07:43:21.690Z,102654.31
2023-04-08T07:48:25.754Z,102655.38
2023-04-08T07:53:30.172Z,102661.75
2023-04-08T07:58:34.187Z,102667.75
2023-04-08T08:03:39.510Z,102671.75
2023-04-08T08:08:43.703Z,102671.34
2023-04-08T08:13:48.043Z,102677.06
2023-04-08T08:18:52.958Z,102685.75
2023-04-08T08:23:57.062Z,102688.22
2023-04-08T08:28:58.888Z,102702.28
2023-04-08T08:34:00.825Z,102706.25
2023-04-08T08:39:04.852Z,102694.47
2023-04-08T08:44:07.732Z,102700.50
2023-04-08T08:49:09.484Z,102706.41
2023-04-08T08:54:11.327Z,102711.63
2023-04-08T08:59:15.652Z,102713.47
2023-04-08T09:04:20.480Z,102716.22
2023-04-08T09:25:24.713Z,102724.28
2023-04-08T09:30:29.937Z,102718.78
2023-04-08T09:35:31.718Z,102718.78
2023-04-08T09:40:36.425Z,102724.00
2023-04-08T09:45:41.597Z,102730.47
2023-04-08T09:50:44.892Z,102733.03
2023-04-08T09:55:51.317Z,102735.16
2023-04-08T10:00:54.908Z,102743.66
2023-04-08T10:06:00.170Z,102729.25
2023-04-08T10:11:02.091Z,102741.31
2023-04-08T10:16:25.368Z,102736.69
2023-04-08T10:21:50.207Z,102733.16
2023-04-08T10:26:51.982Z,102740.09
2023-04-08T10:31:53.963Z,102742.19
2023-04-08T10:36:59.092Z,102751.09
2023-04-08T10:42:02.668Z,102745.06
2023-04-08T10:47:04.724Z,102751.69
2023-04-08T10:52:09.678Z,102747.44
2023-04-08T10:57:11.446Z,102748.44
2023-04-08T11:02:14.800Z,102744.47
2023-04-08T11:07:21.195Z,102743.31
2023-04-08T11:12:25.746Z,102748.22
2023-04-08T11:17:30.434Z,102755.03
2023-04-08T11:22:34.540Z,102757.34
2023-04-08T11:27:36.745Z,102750.16
2023-04-08T11:32:39.028Z,102749.31
2023-04-08T11:37:42.057Z,102749.72
2023-04-08T11:42:47.208Z,102749.38
2023-04-08T11:47:49.204Z,102741.47
2023-04-08T11:52:53.680Z,102744.63
2023-04-08T11:58:03.318Z,102745.94
2023-04-08T12:03:09.694Z,102751.81
2023-04-08T12:08:11.654Z,102755.44
2023-04-08T12:13:13.352Z,102754.09
2023-04-08T12:18:15.021Z,102751.25
2023-04-08T12:23:16.894Z,102751.63
2023-04-08T12:28:18.583Z,102764.91
2023-04-08T12:33:20.639Z,102758.88
2023-04-08T12:38:22.394Z,102754.34
2023-04-08T12:43:24.569Z,102752.78
2023-04-08T12:48:28.535Z,102753.63
2023-04-08T12:53:30.422Z,102758.50
2023-04-08T12:58:32.144Z,102760.16
2023-04-08T13:03:35.496Z,102746.28
2023-04-08T13:08:37.470Z,102740.88
2023-04-08T13:13:39.411Z,102743.91
2023-04-08T13:18:41.546Z,102745.34
2023-04-08T13:23:43.339Z,102738.88
2023-04-08T13:33:52.306Z,102726.84
2023-04-08T13:38:57.509Z,102734.59
2023-04-08T13:43:59.745Z,102728.75
2023-04-08T13:49:03.191Z,102733.00
2023-04-08T13:54:05.127Z,102735.25
2023-04-08T13:59:07.338Z,102733.31
2023-04-08T14:04:12.025Z,102733.09
2023-04-08T14:09:16.084Z,102740.09
2023-04-08T14:14:17.807Z,102732.56
2023-04-08T14:19:19.697Z,102733.63
2023-04-08T14:24:23.588Z,102743.69
2023-04-08T14:29:26.635Z,102740.75
2023-04-08T14:34:29.541Z,102731.63
2023-04-08T14:39:31.255Z,102734.22
2023-04-08T14:44:33.081Z,102729.81
2023-04-08T14:49:34.786Z,102734.09
2023-04-08T14:54:39.537Z,102741.38
2023-04-08T14:59:41.246Z,102745.63
2023-04-08T15:04:43.181Z,102735.91
2023-04-08T15:09:44.948Z,102741.09
2023-04-08T15:14:46.650Z,102735.09
2023-04-08T15:19:51.005Z,102726.75
2023-04-08T15:24:55.405Z,102734.66
2023-04-08T15:29:57.271Z,102729.34
2023-04-08T15:34:59.632Z,102729.28
2023-04-08T15:40:06.172Z,102733.47
2023-04-08T15:45:08.680Z,102726.56
2023-04-08T15:50:11.085Z,102722.84
2023-04-08T15:55:13.036Z,102713.81
2023-04-08T16:00:16.648Z,102727.78
2023-04-08T16:05:21.083Z,102725.59
2023-04-08T16:10:22.861Z,102721.94
2023-04-08T16:15:24.604Z,102730.53
2023-04-08T16:20:27.801Z,102721.94
2023-04-08T16:25:30.365Z,102718.56
2023-04-08T16:30:32.165Z,102724.16
2023-04-08T16:35:36.449Z,102728.03
2023-04-08T16:40:39.216Z,102719.91
2023-04-08T16:45:43.997Z,102727.84
2023-04-08T16:50:46.078Z,102723.41
2023-04-08T16:55:50.251Z,102709.56
2023-04-08T17:00:54.407Z,102719.84
2023-04-08T17:06:12.170Z,102723.31
2023-04-08T17:11:15.078Z,102728.63
2023-04-08T17:16:18.040Z,102724.97
2023-04-08T17:21:20.349Z,102730.41
2023-04-08T17:26:23.461Z,102727.47
2023-04-08T17:31:27.721Z,102731.56
2023-04-08T17:36:31.984Z,102737.94
2023-04-08T17:41:40.484Z,102752.13
2023-04-08T17:46:43.115Z,102750.75
2023-04-08T17:51:47.384Z,102752.56
2023-04-08T17:56:49.637Z,102756.59
2023-04-08T18:01:53.862Z,102763.56
2023-04-08T18:06:56.611Z,102773.88
2023-04-08T18:11:58.328Z,102776.47
2023-04-08T18:17:00.288Z,102777.47
2023-04-08T18:22:04.562Z,102778.34
2023-04-08T18:27:06.410Z,102791.88
2023-04-08T18:32:08.236Z,102800.94
2023-04-08T18:37:11.142Z,102803.72
2023-04-08T18:42:12.840Z,102824.03
2023-04-08T18:47:14.648Z,102822.19
2023-04-08T18:52:16.438Z,102832.72
2023-04-08T18:57:18.225Z,102829.44
2023-04-08T19:02:22.847Z,102838.19
2023-04-08T19:07:27.821Z,102848.00
2023-04-08T19:12:29.706Z,102849.66
2023-04-08T19:17:33.682Z,102847.63
2023-04-08T19:22:35.596Z,102850.31
2023-04-08T19:27:37.618Z,102853.44
2023-04-08T19:32:39.421Z,102849.28
2023-04-08T19:37:43.459Z,102863.31
2023-04-08T19:42:47.430Z,102855.25
2023-04-08T19:47:49.388Z,102846.88
2023-04-08T19:52:51.312Z,102853.59
2023-04-08T19:57:54.021Z,102853.47
2023-04-08T20:02:56.204Z,102853.88
2023-04-08T20:07:59.076Z,102850.13
2023-04-08T20:13:00.837Z,102849.09
2023-04-08T20:18:02.675Z,102850.31
2023-04-08T20:23:04.486Z,102856.50
2023-04-08T20:28:06.237Z,102853.50
2023-04-08T20:33:10.426Z,102850.25
2023-04-08T20:38:14.679Z,102848.41
2023-04-08T20:43:16.882Z,102856.97
2023-04-08T20:48:18.603Z,102860.94
2023-04-08T20:53:23.741Z,102863.38
2023-04-08T20:58:26.022Z,102852.22
2023-04-08T21:03:27.935Z,102854.50
2023-04-08T21:08:34.367Z,102850.47
2023-04-08T21:13:36.052Z,102854.59
2023-04-08T21:18:38.929Z,102847.19
2023-04-08T21:23:42.986Z,102850.81
2023-04-08T21:28:47.337Z,102841.06
2023-04-08T21:33:51.160Z,102843.59
2023-04-08T21:38:56.205Z,102850.84
2023-04-08T21:43:58.240Z,102847.81
2023-04-08T21:49:02.302Z,102849.53
2023-04-08T21:54:06.421Z,102851.66
2023-04-08T21:59:10.613Z,102853.84
2023-04-08T22:04:12.432Z,102851.94
2023-04-08T22:09:16.737Z,102852.03
2023-04-08T22:14:20.827Z,102853.34
2023-04-08T22:19:22.719Z,102851.66
2023-04-08T22:24:24.449Z,102846.91
2023-04-08T22:29:26.173Z,102855.19
2023-04-08T22:34:27.859Z,102855.69
2023-04-08T22:39:29.515Z,102850.72
2023-04-08T22:44:31.304Z,102847.94
2023-04-08T22:49:33.013Z,102838.13
2023-04-08T22:54:37.759Z,102840.16
2023-04-08T22:59:41.601Z,102827.09
2023-04-08T23:04:48.245Z,102833.28
2023-04-08T23:09:49.974Z,102829.25
2023-04-08T23:14:51.689Z,102824.66
2023-04-08T23:19:58.216Z,102818.38
2023-04-08T23:25:02.525Z,102817.16
2023-04-08T23:30:07.483Z,102833.75
2023-04-08T23:35:13.960Z,102828.34
2023-04-08T23:40:18.192Z,102839.75
2023-04-08T23:45:19.890Z,102830.78
2023-04-08T23:50:23.066Z,102831.63
2023-04-08T23:55:26.906Z,102828.94
